sensor_id;sensor_type;location;lat;lon;timestamp;pressure;altitude;pressure_sealevel;temperature;humidity
64679;BME280;51094;53.864;27.676;2023-01-26T00:01:22;100123.28;;;-1.20;83.50
64679;BME280;51094;53.864;27.676;2023-01-26T00:03:50;100086.03;;;-1.40;83.69
64679;BME280;51094;53.864;27.676;2023-01-26T00:06:19;100129.16;;;-1.14;83.73
64679;BME280;51094;53.864;27.676;2023-01-26T00:08:53;100127.41;;;-1.07;83.67
64679;BME280;51094;53.864;27.676;2023-01-26T00:11:22;100050.66;;;-1.76;83.22
64679;BME280;51094;53.864;27.676;2023-01-26T00:13:49;100084.34;;;-1.41;83.72
64679;BME280;51094;53.864;27.676;2023-01-26T00:16:16;100126.59;;;-1.12;83.45
64679;BME280;51094;53.864;27.676;2023-01-26T00:18:43;100025.22;;;-1.82;83.67
64679;BME280;51094;53.864;27.676;2023-01-26T00:21:12;100131.91;;;-1.33;83.48
64679;BME280;51094;53.864;27.676;2023-01-26T00:23:40;100118.09;;;-1.13;83.61
64679;BME280;51094;53.864;27.676;2023-01-26T00:26:09;100056.47;;;-1.63;83.92
64679;BME280;51094;53.864;27.676;2023-01-26T00:28:38;100127.53;;;-1.22;84.13
64679;BME280;51094;53.864;27.676;2023-01-26T00:31:06;99997.56;;;-2.31;83.96
64679;BME280;51094;53.864;27.676;2023-01-26T00:33:35;100128.44;;;-1.26;84.14
64679;BME280;51094;53.864;27.676;2023-01-26T00:36:02;100016.84;;;-1.98;84.39
64679;BME280;51094;53.864;27.676;2023-01-26T00:38:30;100089.50;;;-1.47;84.44
64679;BME280;51094;53.864;27.676;2023-01-26T00:40:56;100088.56;;;-1.37;84.24
64679;BME280;51094;53.864;27.676;2023-01-26T00:43:24;100124.09;;;-1.18;84.29
64679;BME280;51094;53.864;27.676;2023-01-26T00:45:55;99848.50;;;-2.76;84.13
64679;BME280;51094;53.864;27.676;2023-01-26T00:48:22;100124.88;;;-1.10;84.05
64679;BME280;51094;53.864;27.676;2023-01-26T00:50:51;100049.63;;;-1.58;84.09
64679;BME280;51094;53.864;27.676;2023-01-26T00:53:18;100130.03;;;-1.15;84.42
64679;BME280;51094;53.864;27.676;2023-01-26T00:55:45;100126.63;;;-1.14;84.42
64679;BME280;51094;53.864;27.676;2023-01-26T00:58:12;100124.03;;;-1.12;84.47
64679;BME280;51094;53.864;27.676;2023-01-26T01:00:38;100031.13;;;-1.76;84.04
64679;BME280;51094;53.864;27.676;2023-01-26T01:03:06;100002.31;;;-1.88;84.81
64679;BME280;51094;53.864;27.676;2023-01-26T01:05:33;100049.59;;;-1.52;84.44
64679;BME280;51094;53.864;27.676;2023-01-26T01:08:00;100102.84;;;-1.19;85.01
64679;BME280;51094;53.864;27.676;2023-01-26T01:10:27;100122.22;;;-0.99;84.81
64679;BME280;51094;53.864;27.676;2023-01-26T01:12:54;99921.91;;;-2.20;84.55
64679;BME280;51094;53.864;27.676;2023-01-26T01:15:23;100123.19;;;-1.10;84.76
64679;BME280;51094;53.864;27.676;2023-01-26T01:17:50;100119.78;;;-1.10;85.10
64679;BME280;51094;53.864;27.676;2023-01-26T01:20:17;100126.59;;;-1.11;84.88
64679;BME280;51094;53.864;27.676;2023-01-26T01:22:45;100103.00;;;-1.32;85.38
64679;BME280;51094;53.864;27.676;2023-01-26T01:25:12;99905.03;;;-2.36;85.16
64679;BME280;51094;53.864;27.676;2023-01-26T01:27:39;100082.53;;;-1.29;85.20
64679;BME280;51094;53.864;27.676;2023-01-26T01:30:07;100016.56;;;-1.69;85.40
64679;BME280;51094;53.864;27.676;2023-01-26T01:32:34;99988.47;;;-1.63;85.40
64679;BME280;51094;53.864;27.676;2023-01-26T01:35:02;100008.81;;;-1.55;85.26
64679;BME280;51094;53.864;27.676;2023-01-26T01:37:29;100056.13;;;-1.25;84.74
64679;BME280;51094;53.864;27.676;2023-01-26T01:39:56;100051.03;;;-1.28;85.01
64679;BME280;51094;53.864;27.676;2023-01-26T01:42:24;99983.63;;;-1.89;85.22
64679;BME280;51094;53.864;27.676;2023-01-26T01:47:58;99968.41;;;-1.98;86.27
64679;BME280;51094;53.864;27.676;2023-01-26T01:50:26;100100.22;;;-1.13;86.07
64679;BME280;51094;53.864;27.676;2023-01-26T01:52:54;100016.56;;;-1.66;85.82
64679;BME280;51094;53.864;27.676;2023-01-26T01:55:22;100078.91;;;-1.09;85.98
64679;BME280;51094;53.864;27.676;2023-01-26T01:57:54;99901.44;;;-2.14;85.66
64679;BME280;51094;53.864;27.676;2023-01-26T02:00:25;100024.84;;;-1.43;86.19
64679;BME280;51094;53.864;27.676;2023-01-26T02:02:57;100070.28;;;-0.97;85.77
64679;BME280;51094;53.864;27.676;2023-01-26T02:08:24;99977.16;;;-1.38;85.62
64679;BME280;51094;53.864;27.676;2023-01-26T02:10:54;99921.50;;;-1.77;85.26
64679;BME280;51094;53.864;27.676;2023-01-26T02:13:26;100022.84;;;-1.16;85.20
64679;BME280;51094;53.864;27.676;2023-01-26T02:15:53;100060.06;;;-0.95;85.42
64679;BME280;51094;53.864;27.676;2023-01-26T02:18:20;100049.91;;;-1.00;85.05
64679;BME280;51094;53.864;27.676;2023-01-26T02:20:59;100019.03;;;-1.58;85.23
64679;BME280;51094;53.864;27.676;2023-01-26T02:23:34;100044.94;;;-1.12;85.77
64679;BME280;51094;53.864;27.676;2023-01-26T02:26:34;100044.09;;;-1.13;85.60
64679;BME280;51094;53.864;27.676;2023-01-26T02:29:04;100041.50;;;-1.11;85.84
64679;BME280;51094;53.864;27.676;2023-01-26T02:31:35;99756.88;;;-2.76;85.65
64679;BME280;51094;53.864;27.676;2023-01-26T02:34:02;99899.44;;;-1.83;85.62
64679;BME280;51094;53.864;27.676;2023-01-26T02:36:31;100034.53;;;-0.94;85.26
64679;BME280;51094;53.864;27.676;2023-01-26T02:41:45;99965.28;;;-1.40;84.97
64679;BME280;51094;53.864;27.676;2023-01-26T02:44:31;99951.09;;;-1.64;84.49
64679;BME280;51094;53.864;27.676;2023-01-26T02:46:58;99953.81;;;-1.79;84.87
64679;BME280;51094;53.864;27.676;2023-01-26T02:49:25;100035.56;;;-1.12;85.26
64679;BME280;51094;53.864;27.676;2023-01-26T02:52:18;100030.47;;;-1.13;85.25
64679;BME280;51094;53.864;27.676;2023-01-26T02:54:51;99968.75;;;-1.46;85.38
64679;BME280;51094;53.864;27.676;2023-01-26T02:57:38;99931.50;;;-1.62;85.70
64679;BME280;51094;53.864;27.676;2023-01-26T03:00:11;99950.09;;;-1.51;85.29
64679;BME280;51094;53.864;27.676;2023-01-26T03:02:40;100026.91;;;-0.97;85.12
64679;BME280;51094;53.864;27.676;2023-01-26T03:05:07;99995.63;;;-1.17;84.41
64679;BME280;51094;53.864;27.676;2023-01-26T03:07:35;99945.88;;;-1.55;84.78
64679;BME280;51094;53.864;27.676;2023-01-26T03:10:03;100032.84;;;-0.96;85.10
64679;BME280;51094;53.864;27.676;2023-01-26T03:12:30;100026.97;;;-1.03;84.59
64679;BME280;51094;53.864;27.676;2023-01-26T03:14:56;99806.63;;;-2.43;84.66
64679;BME280;51094;53.864;27.676;2023-01-26T03:17:42;99598.88;;;-3.42;84.82
64679;BME280;51094;53.864;27.676;2023-01-26T03:20:09;99879.16;;;-1.93;84.35
64679;BME280;51094;53.864;27.676;2023-01-26T03:22:55;100047.16;;;-0.86;85.29
64679;BME280;51094;53.864;27.676;2023-01-26T03:25:41;99810.63;;;-2.18;84.73
64679;BME280;51094;53.864;27.676;2023-01-26T03:28:30;99911.78;;;-1.46;84.46
64679;BME280;51094;53.864;27.676;2023-01-26T03:30:57;99812.19;;;-2.08;84.32
64679;BME280;51094;53.864;27.676;2023-01-26T03:33:24;99746.50;;;-2.58;84.14
64679;BME280;51094;53.864;27.676;2023-01-26T03:35:53;100033.72;;;-0.97;84.47
64679;BME280;51094;53.864;27.676;2023-01-26T03:38:21;100005.69;;;-1.02;84.66
64679;BME280;51094;53.864;27.676;2023-01-26T03:40:56;99864.06;;;-2.15;84.94
64679;BME280;51094;53.864;27.676;2023-01-26T03:43:42;100014.19;;;-1.02;85.07
64679;BME280;51094;53.864;27.676;2023-01-26T03:46:27;99911.13;;;-1.65;85.11
64679;BME280;51094;53.864;27.676;2023-01-26T03:49:13;99939.00;;;-1.45;85.35
64679;BME280;51094;53.864;27.676;2023-01-26T03:51:59;99917.00;;;-1.57;85.53
64679;BME280;51094;53.864;27.676;2023-01-26T03:54:46;99995.38;;;-0.94;85.72
64679;BME280;51094;53.864;27.676;2023-01-26T03:57:31;100025.22;;;-0.99;85.58
64679;BME280;51094;53.864;27.676;2023-01-26T03:59:58;100000.53;;;-0.99;85.17
64679;BME280;51094;53.864;27.676;2023-01-26T04:02:25;99932.13;;;-1.39;85.41
64679;BME280;51094;53.864;27.676;2023-01-26T04:05:11;99710.13;;;-2.67;85.15
64679;BME280;51094;53.864;27.676;2023-01-26T04:08:05;99873.81;;;-1.72;85.55
64679;BME280;51094;53.864;27.676;2023-01-26T04:10:58;99915.81;;;-1.28;85.29
64679;BME280;51094;53.864;27.676;2023-01-26T04:13:25;99938.53;;;-1.09;85.91
64679;BME280;51094;53.864;27.676;2023-01-26T04:16:31;99976.44;;;-0.80;85.58
64679;BME280;51094;53.864;27.676;2023-01-26T04:19:16;99987.44;;;-0.75;85.62
64679;BME280;51094;53.864;27.676;2023-01-26T04:22:02;99991.09;;;-0.92;85.34
64679;BME280;51094;53.864;27.676;2023-01-26T04:24:31;99990.28;;;-0.94;85.66
64679;BME280;51094;53.864;27.676;2023-01-26T04:26:58;99965.88;;;-1.18;85.82
64679;BME280;51094;53.864;27.676;2023-01-26T04:29:30;99775.84;;;-2.22;85.87
64679;BME280;51094;53.864;27.676;2023-01-26T04:31:57;99829.88;;;-1.92;86.17
64679;BME280;51094;53.864;27.676;2023-01-26T04:34:25;99927.00;;;-1.39;86.98
64679;BME280;51094;53.864;27.676;2023-01-26T04:36:52;99994.50;;;-0.93;86.86
64679;BME280;51094;53.864;27.676;2023-01-26T04:39:21;99990.97;;;-0.85;87.26
64679;BME280;51094;53.864;27.676;2023-01-26T04:41:52;99998.66;;;-0.86;87.25
64679;BME280;51094;53.864;27.676;2023-01-26T04:44:19;99961.50;;;-1.07;87.42
64679;BME280;51094;53.864;27.676;2023-01-26T04:46:47;99998.59;;;-0.82;87.39
64679;BME280;51094;53.864;27.676;2023-01-26T04:49:14;99808.59;;;-1.88;87.30
64679;BME280;51094;53.864;27.676;2023-01-26T04:51:41;99887.28;;;-1.61;87.38
64679;BME280;51094;53.864;27.676;2023-01-26T04:54:08;100007.09;;;-0.80;87.85
64679;BME280;51094;53.864;27.676;2023-01-26T04:56:39;99918.25;;;-1.19;87.91
64679;BME280;51094;53.864;27.676;2023-01-26T04:59:06;99880.91;;;-1.25;87.78
64679;BME280;51094;53.864;27.676;2023-01-26T05:01:35;99803.34;;;-1.76;87.60
64679;BME280;51094;53.864;27.676;2023-01-26T05:04:05;99734.22;;;-2.21;87.20
64679;BME280;51094;53.864;27.676;2023-01-26T05:06:34;99802.66;;;-1.89;87.33
64679;BME280;51094;53.864;27.676;2023-01-26T05:09:01;99931.22;;;-1.35;87.80
64679;BME280;51094;53.864;27.676;2023-01-26T05:11:30;99991.63;;;-0.68;87.78
64679;BME280;51094;53.864;27.676;2023-01-26T05:14:18;99990.66;;;-0.59;87.70
64679;BME280;51094;53.864;27.676;2023-01-26T05:16:58;99919.75;;;-1.03;87.31
64679;BME280;51094;53.864;27.676;2023-01-26T05:19:46;99933.31;;;-0.99;87.20
64679;BME280;51094;53.864;27.676;2023-01-26T05:22:28;99983.78;;;-0.54;87.46
64679;BME280;51094;53.864;27.676;2023-01-26T05:25:30;99986.31;;;-0.52;87.33
64679;BME280;51094;53.864;27.676;2023-01-26T05:28:01;99850.38;;;-1.31;87.37
64679;BME280;51094;53.864;27.676;2023-01-26T05:30:28;99918.78;;;-0.93;86.70
64679;BME280;51094;53.864;27.676;2023-01-26T05:33:03;99832.69;;;-1.43;87.29
64679;BME280;51094;53.864;27.676;2023-01-26T05:35:31;99922.25;;;-1.00;87.07
64679;BME280;51094;53.864;27.676;2023-01-26T05:37:58;99942.44;;;-0.82;87.32
64679;BME280;51094;53.864;27.676;2023-01-26T05:40:27;99948.34;;;-0.80;87.16
64679;BME280;51094;53.864;27.676;2023-01-26T05:42:54;99912.97;;;-1.04;86.92
64679;BME280;51094;53.864;27.676;2023-01-26T05:45:42;99757.84;;;-2.08;86.85
64679;BME280;51094;53.864;27.676;2023-01-26T05:48:11;99870.84;;;-1.34;87.26
64679;BME280;51094;53.864;27.676;2023-01-26T05:50:37;99714.69;;;-2.19;87.21
64679;BME280;51094;53.864;27.676;2023-01-26T05:53:13;99836.97;;;-1.45;87.17
64679;BME280;51094;53.864;27.676;2023-01-26T05:55:42;99805.56;;;-1.50;87.58
64679;BME280;51094;53.864;27.676;2023-01-26T05:58:09;99968.31;;;-0.45;87.47
64679;BME280;51094;53.864;27.676;2023-01-26T06:00:37;99619.25;;;-2.61;86.86
64679;BME280;51094;53.864;27.676;2023-01-26T06:03:14;99910.31;;;-0.98;86.92
64679;BME280;51094;53.864;27.676;2023-01-26T06:05:42;99935.84;;;-0.98;87.14
64679;BME280;51094;53.864;27.676;2023-01-26T06:08:20;99832.78;;;-1.51;87.53
64679;BME280;51094;53.864;27.676;2023-01-26T06:11:22;99964.41;;;-0.72;88.24
64679;BME280;51094;53.864;27.676;2023-01-26T06:14:08;99959.41;;;-0.78;88.10
64679;BME280;51094;53.864;27.676;2023-01-26T06:16:35;99885.34;;;-1.39;88.55
64679;BME280;51094;53.864;27.676;2023-01-26T06:19:02;99899.53;;;-1.20;88.63
64679;BME280;51094;53.864;27.676;2023-01-26T06:21:32;99941.78;;;-0.96;88.89
64679;BME280;51094;53.864;27.676;2023-01-26T06:23:58;99968.06;;;-0.88;89.17
64679;BME280;51094;53.864;27.676;2023-01-26T06:26:25;99758.00;;;-2.20;89.20
64679;BME280;51094;53.864;27.676;2023-01-26T06:28:54;99833.09;;;-1.77;89.80
64679;BME280;51094;53.864;27.676;2023-01-26T06:31:22;99932.75;;;-1.21;90.41
64679;BME280;51094;53.864;27.676;2023-01-26T06:33:57;99729.41;;;-2.45;89.99
64679;BME280;51094;53.864;27.676;2023-01-26T06:36:25;99752.22;;;-2.36;89.87
64679;BME280;51094;53.864;27.676;2023-01-26T06:38:54;99955.38;;;-0.94;90.20
64679;BME280;51094;53.864;27.676;2023-01-26T06:41:23;99860.88;;;-1.55;89.98
64679;BME280;51094;53.864;27.676;2023-01-26T06:43:50;99894.66;;;-1.35;90.08
64679;BME280;51094;53.864;27.676;2023-01-26T06:46:17;99964.66;;;-0.88;90.57
64679;BME280;51094;53.864;27.676;2023-01-26T06:48:46;99967.06;;;-0.79;90.55
64679;BME280;51094;53.864;27.676;2023-01-26T06:53:50;99674.47;;;-2.67;89.47
64679;BME280;51094;53.864;27.676;2023-01-26T06:56:26;99920.69;;;-1.10;89.82
64679;BME280;51094;53.864;27.676;2023-01-26T06:58:59;99690.34;;;-2.44;89.68
64679;BME280;51094;53.864;27.676;2023-01-26T07:01:52;99956.84;;;-0.78;89.78
64679;BME280;51094;53.864;27.676;2023-01-26T07:04:19;99772.94;;;-1.91;89.01
64679;BME280;51094;53.864;27.676;2023-01-26T07:06:46;99949.22;;;-0.81;89.47
64679;BME280;51094;53.864;27.676;2023-01-26T07:09:13;99909.53;;;-1.03;89.24
64679;BME280;51094;53.864;27.676;2023-01-26T07:11:39;99967.06;;;-0.78;89.04
64679;BME280;51094;53.864;27.676;2023-01-26T07:14:06;99944.06;;;-0.78;89.00
64679;BME280;51094;53.864;27.676;2023-01-26T07:16:33;99739.97;;;-2.05;88.73
64679;BME280;51094;53.864;27.676;2023-01-26T07:19:01;99947.38;;;-0.70;89.26
64679;BME280;51094;53.864;27.676;2023-01-26T07:21:27;99715.53;;;-2.18;89.43
64679;BME280;51094;53.864;27.676;2023-01-26T07:23:54;99798.69;;;-1.45;88.83
64679;BME280;51094;53.864;27.676;2023-01-26T07:26:21;99814.81;;;-1.43;89.10
64679;BME280;51094;53.864;27.676;2023-01-26T07:28:48;99830.09;;;-1.42;88.54
64679;BME280;51094;53.864;27.676;2023-01-26T07:31:15;100003.28;;;-0.48;88.50
64679;BME280;51094;53.864;27.676;2023-01-26T07:33:42;99891.31;;;-0.79;88.07
64679;BME280;51094;53.864;27.676;2023-01-26T07:36:09;99943.75;;;-0.53;87.99
64679;BME280;51094;53.864;27.676;2023-01-26T07:38:37;99750.66;;;-1.76;87.65
64679;BME280;51094;53.864;27.676;2023-01-26T07:41:08;99943.09;;;-0.68;87.42
64679;BME280;51094;53.864;27.676;2023-01-26T07:43:36;99882.38;;;-1.09;87.03
64679;BME280;51094;53.864;27.676;2023-01-26T07:46:07;99940.09;;;-0.97;87.43
64679;BME280;51094;53.864;27.676;2023-01-26T07:48:36;99704.69;;;-2.37;86.99
64679;BME280;51094;53.864;27.676;2023-01-26T07:51:04;99930.47;;;-0.80;87.41
64679;BME280;51094;53.864;27.676;2023-01-26T07:53:31;99700.16;;;-2.14;87.25
64679;BME280;51094;53.864;27.676;2023-01-26T07:56:12;99754.34;;;-1.99;87.03
64679;BME280;51094;53.864;27.676;2023-01-26T07:58:39;99944.75;;;-0.65;87.48
64679;BME280;51094;53.864;27.676;2023-01-26T08:01:11;99920.84;;;-0.59;87.24
64679;BME280;51094;53.864;27.676;2023-01-26T08:03:38;99883.75;;;-0.85;86.31
64679;BME280;51094;53.864;27.676;2023-01-26T08:06:06;99927.63;;;-0.58;86.28
64679;BME280;51094;53.864;27.676;2023-01-26T08:08:37;99646.91;;;-2.32;85.80
64679;BME280;51094;53.864;27.676;2023-01-26T08:11:08;99880.41;;;-0.88;86.03
64679;BME280;51094;53.864;27.676;2023-01-26T08:13:35;99576.16;;;-2.78;85.80
64679;BME280;51094;53.864;27.676;2023-01-26T08:16:03;99926.03;;;-0.67;85.86
64679;BME280;51094;53.864;27.676;2023-01-26T08:18:31;99708.44;;;-1.98;86.05
64679;BME280;51094;53.864;27.676;2023-01-26T08:20:58;99754.09;;;-1.78;86.15
64679;BME280;51094;53.864;27.676;2023-01-26T08:23:25;99890.59;;;-0.87;86.17
64679;BME280;51094;53.864;27.676;2023-01-26T08:25:52;99936.22;;;-0.64;85.72
64679;BME280;51094;53.864;27.676;2023-01-26T08:28:19;99696.75;;;-2.13;85.62
64679;BME280;51094;53.864;27.676;2023-01-26T08:30:46;99986.47;;;-0.66;85.85
64679;BME280;51094;53.864;27.676;2023-01-26T08:33:13;99857.72;;;-1.08;86.12
64679;BME280;51094;53.864;27.676;2023-01-26T08:35:40;99939.63;;;-0.63;85.82
64679;BME280;51094;53.864;27.676;2023-01-26T08:38:07;99595.72;;;-2.81;85.88
64679;BME280;51094;53.864;27.676;2023-01-26T08:40:34;99939.56;;;-0.60;84.95
64679;BME280;51094;53.864;27.676;2023-01-26T08:43:02;99934.44;;;-0.59;85.16
64679;BME280;51094;53.864;27.676;2023-01-26T08:45:29;99929.38;;;-0.60;84.89
64679;BME280;51094;53.864;27.676;2023-01-26T08:47:59;99942.06;;;-0.56;84.34
64679;BME280;51094;53.864;27.676;2023-01-26T08:50:26;99807.09;;;-1.37;83.70
64679;BME280;51094;53.864;27.676;2023-01-26T08:52:54;99896.47;;;-0.82;83.41
64679;BME280;51094;53.864;27.676;2023-01-26T08:55:21;99931.97;;;-0.63;83.68
64679;BME280;51094;53.864;27.676;2023-01-26T08:57:52;99846.81;;;-1.19;83.82
64679;BME280;51094;53.864;27.676;2023-01-26T09:00:22;99830.81;;;-1.30;83.71
64679;BME280;51094;53.864;27.676;2023-01-26T09:02:52;99939.56;;;-0.60;83.57
64679;BME280;51094;53.864;27.676;2023-01-26T09:05:23;99804.59;;;-1.42;83.96
64679;BME280;51094;53.864;27.676;2023-01-26T09:07:51;99939.56;;;-0.60;83.71
64679;BME280;51094;53.864;27.676;2023-01-26T09:10:18;99889.06;;;-0.98;83.23
64679;BME280;51094;53.864;27.676;2023-01-26T09:12:45;99928.44;;;-0.56;83.52
64679;BME280;51094;53.864;27.676;2023-01-26T09:15:12;99772.38;;;-1.47;83.24
64679;BME280;51094;53.864;27.676;2023-01-26T09:17:39;99694.91;;;-2.02;82.30
64679;BME280;51094;53.864;27.676;2023-01-26T09:20:09;99926.03;;;-0.65;82.84
64679;BME280;51094;53.864;27.676;2023-01-26T09:22:37;99942.19;;;-0.65;82.76
64679;BME280;51094;53.864;27.676;2023-01-26T09:25:04;99916.63;;;-0.62;82.94
64679;BME280;51094;53.864;27.676;2023-01-26T09:27:31;99929.31;;;-0.57;82.69
64679;BME280;51094;53.864;27.676;2023-01-26T09:29:58;99734.59;;;-1.82;81.98
64679;BME280;51094;53.864;27.676;2023-01-26T09:32:25;99922.59;;;-0.63;82.87
64679;BME280;51094;53.864;27.676;2023-01-26T09:34:52;99852.41;;;-0.93;82.68
64679;BME280;51094;53.864;27.676;2023-01-26T09:37:18;99800.88;;;-1.21;82.09
64679;BME280;51094;53.864;27.676;2023-01-26T09:39:45;99919.00;;;-0.50;82.00
64679;BME280;51094;53.864;27.676;2023-01-26T09:50:39;99947.97;;;-0.51;81.92
64679;BME280;51094;53.864;27.676;2023-01-26T09:53:27;99911.09;;;-0.36;81.32
64679;BME280;51094;53.864;27.676;2023-01-26T09:56:00;99873.06;;;-0.54;80.75
64679;BME280;51094;53.864;27.676;2023-01-26T09:58:33;99759.81;;;-1.64;80.46
64679;BME280;51094;53.864;27.676;2023-01-26T10:01:03;99869.91;;;-0.70;80.85
64679;BME280;51094;53.864;27.676;2023-01-26T10:03:45;99893.47;;;-0.51;80.49
64679;BME280;51094;53.864;27.676;2023-01-26T10:06:25;99895.00;;;-0.43;80.99
64679;BME280;51094;53.864;27.676;2023-01-26T10:09:21;99808.47;;;-1.16;80.45
64679;BME280;51094;53.864;27.676;2023-01-26T10:11:55;99776.94;;;-1.11;80.23
64679;BME280;51094;53.864;27.676;2023-01-26T10:14:35;99899.13;;;-0.34;80.98
64679;BME280;51094;53.864;27.676;2023-01-26T10:17:13;99856.88;;;-0.53;80.57
64679;BME280;51094;53.864;27.676;2023-01-26T10:19:46;99553.56;;;-2.36;80.58
64679;BME280;51094;53.864;27.676;2023-01-26T10:22:19;99909.84;;;-0.64;80.48
64679;BME280;51094;53.864;27.676;2023-01-26T10:24:49;99811.56;;;-0.94;80.70
64679;BME280;51094;53.864;27.676;2023-01-26T10:27:16;99802.03;;;-0.85;81.54
64679;BME280;51094;53.864;27.676;2023-01-26T10:29:44;99883.78;;;-0.34;80.89
64679;BME280;51094;53.864;27.676;2023-01-26T10:32:13;99877.69;;;-0.25;81.46
64679;BME280;51094;53.864;27.676;2023-01-26T10:34:41;99888.50;;;-0.10;80.94
64679;BME280;51094;53.864;27.676;2023-01-26T10:37:23;99888.56;;;-0.13;80.22
64679;BME280;51094;53.864;27.676;2023-01-26T10:40:00;99891.19;;;-0.17;80.16
64679;BME280;51094;53.864;27.676;2023-01-26T10:42:32;99812.09;;;-0.74;80.42
64679;BME280;51094;53.864;27.676;2023-01-26T10:45:05;99927.47;;;-0.48;81.50
64679;BME280;51094;53.864;27.676;2023-01-26T10:47:32;99871.44;;;-0.58;82.28
64679;BME280;51094;53.864;27.676;2023-01-26T10:50:21;99866.44;;;-0.66;83.45
64679;BME280;51094;53.864;27.676;2023-01-26T10:53:00;99825.19;;;-0.95;85.06
64679;BME280;51094;53.864;27.676;2023-01-26T10:55:29;99903.88;;;-0.63;85.92
64679;BME280;51094;53.864;27.676;2023-01-26T10:57:56;99800.59;;;-1.01;86.71
64679;BME280;51094;53.864;27.676;2023-01-26T11:00:29;99901.97;;;-0.51;86.86
64679;BME280;51094;53.864;27.676;2023-01-26T11:03:03;99854.13;;;-0.43;87.08
64679;BME280;51094;53.864;27.676;2023-01-26T11:05:31;99845.50;;;-0.37;86.27
64679;BME280;51094;53.864;27.676;2023-01-26T11:07:59;99854.69;;;-0.25;86.61
64679;BME280;51094;53.864;27.676;2023-01-26T11:13:14;99834.22;;;-0.24;86.14
64679;BME280;51094;53.864;27.676;2023-01-26T11:16:10;99783.59;;;-0.50;85.89
64679;BME280;51094;53.864;27.676;2023-01-26T11:24:18;99771.03;;;-0.16;85.56
64679;BME280;51094;53.864;27.676;2023-01-26T11:27:12;99816.19;;;0.28;86.28
64679;BME280;51094;53.864;27.676;2023-01-26T11:32:41;99810.13;;;0.32;84.65
64679;BME280;51094;53.864;27.676;2023-01-26T11:37:48;99846.28;;;0.14;82.66
64679;BME280;51094;53.864;27.676;2023-01-26T11:43:38;99809.22;;;0.35;82.81
64679;BME280;51094;53.864;27.676;2023-01-26T11:52:24;99816.28;;;0.24;80.25
64679;BME280;51094;53.864;27.676;2023-01-26T11:55:23;99798.44;;;0.21;81.00
64679;BME280;51094;53.864;27.676;2023-01-26T11:58:06;99805.22;;;0.22;79.28
64679;BME280;51094;53.864;27.676;2023-01-26T12:00:56;99806.28;;;0.12;78.83
64679;BME280;51094;53.864;27.676;2023-01-26T12:06:03;99806.28;;;0.12;79.60
64679;BME280;51094;53.864;27.676;2023-01-26T12:08:36;99655.47;;;-0.75;78.51
64679;BME280;51094;53.864;27.676;2023-01-26T12:11:08;99708.44;;;-0.86;79.08
64679;BME280;51094;53.864;27.676;2023-01-26T12:19:48;99817.16;;;0.23;78.50
64679;BME280;51094;53.864;27.676;2023-01-26T12:22:23;99587.59;;;-1.31;78.58
64679;BME280;51094;53.864;27.676;2023-01-26T12:25:00;99765.81;;;-0.10;79.65
64679;BME280;51094;53.864;27.676;2023-01-26T12:28:24;99800.25;;;0.14;79.77
64679;BME280;51094;53.864;27.676;2023-01-26T12:33:45;99828.34;;;0.16;80.56
64679;BME280;51094;53.864;27.676;2023-01-26T12:41:54;99796.22;;;0.03;80.64
64679;BME280;51094;53.864;27.676;2023-01-26T12:44:43;99800.50;;;0.02;80.58
64679;BME280;51094;53.864;27.676;2023-01-26T12:47:25;99843.00;;;0.08;81.31
64679;BME280;51094;53.864;27.676;2023-01-26T12:50:07;99792.56;;;0.16;81.04
64679;BME280;51094;53.864;27.676;2023-01-26T12:52:49;99771.28;;;0.14;81.64
64679;BME280;51094;53.864;27.676;2023-01-26T12:55:31;99733.84;;;-0.32;80.91
64679;BME280;51094;53.864;27.676;2023-01-26T12:58:07;99767.91;;;0.12;79.45
64679;BME280;51094;53.864;27.676;2023-01-26T13:00:37;99796.84;;;0.14;78.56
64679;BME280;51094;53.864;27.676;2023-01-26T13:03:20;99479.63;;;-1.79;79.64
64679;BME280;51094;53.864;27.676;2023-01-26T13:05:58;99792.63;;;0.13;79.50
64679;BME280;51094;53.864;27.676;2023-01-26T13:11:03;99586.41;;;-1.13;78.51
64679;BME280;51094;53.864;27.676;2023-01-26T13:13:53;99788.44;;;0.09;78.02
64679;BME280;51094;53.864;27.676;2023-01-26T13:16:34;99690.78;;;-0.50;77.86
64679;BME280;51094;53.864;27.676;2023-01-26T13:19:01;99785.09;;;0.05;78.04
64679;BME280;51094;53.864;27.676;2023-01-26T13:26:52;99773.88;;;0.12;78.04
64679;BME280;51094;53.864;27.676;2023-01-26T13:31:51;99753.03;;;-0.10;78.09
64679;BME280;51094;53.864;27.676;2023-01-26T13:34:20;99736.03;;;-0.12;77.26
64679;BME280;51094;53.864;27.676;2023-01-26T13:36:48;99784.84;;;0.17;77.22
64679;BME280;51094;53.864;27.676;2023-01-26T13:39:30;99636.84;;;-0.80;76.74
64679;BME280;51094;53.864;27.676;2023-01-26T13:41:57;99710.16;;;-0.40;77.05
64679;BME280;51094;53.864;27.676;2023-01-26T13:44:36;99757.38;;;-0.61;76.68
64679;BME280;51094;53.864;27.676;2023-01-26T13:47:10;99715.53;;;-0.54;76.97
64679;BME280;51094;53.864;27.676;2023-01-26T13:49:41;99647.97;;;-0.84;76.99
64679;BME280;51094;53.864;27.676;2023-01-26T13:52:25;99751.56;;;-0.23;76.99
64679;BME280;51094;53.864;27.676;2023-01-26T13:54:54;99713.38;;;-0.77;76.52
64679;BME280;51094;53.864;27.676;2023-01-26T13:57:25;99779.44;;;-0.09;75.98
64679;BME280;51094;53.864;27.676;2023-01-26T13:59:59;99778.03;;;-0.25;76.20
64679;BME280;51094;53.864;27.676;2023-01-26T14:02:31;99815.50;;;-0.24;76.85
64679;BME280;51094;53.864;27.676;2023-01-26T14:05:00;99688.69;;;-0.76;77.08
64679;BME280;51094;53.864;27.676;2023-01-26T14:07:31;99783.09;;;-0.24;77.01
64679;BME280;51094;53.864;27.676;2023-01-26T14:10:01;99709.06;;;-0.73;76.99
64679;BME280;51094;53.864;27.676;2023-01-26T14:15:11;99720.38;;;-0.40;77.33
64679;BME280;51094;53.864;27.676;2023-01-26T14:17:49;99637.06;;;-0.90;76.74
64679;BME280;51094;53.864;27.676;2023-01-26T14:20:20;99717.97;;;-0.46;77.53
64679;BME280;51094;53.864;27.676;2023-01-26T14:23:10;99760.72;;;-0.11;77.67
64679;BME280;51094;53.864;27.676;2023-01-26T14:25:44;99758.19;;;-0.13;77.34
64679;BME280;51094;53.864;27.676;2023-01-26T14:28:14;99754.78;;;-0.13;77.57